map of NRB home
NRB - Airport
Location
City:  Mayport, Florida, United States
Name:Mayport NS Airport
Old (Alt.):Adm David L McDonald Field
ICAO:KNRB
IATA:NRB
FAA LID:NRB

Details
Type:Airport (Airfield)
Use:Military, International (customs port of entry)
Latitude:3023'29"N (30.391374)
Longitude:8125'28"W (-81.424520)
Datum:WGS 1984
Elevation:14 ft (4 m)
Variation:6.71W (WMM2015 magnetic declination)
-0.08 annual change
Runways:1
Longest:8001 × 200 ft (2439 × 61 m), paved

Time
Time Zone:UTC-5 (DST-4)
Local Time:

Weather
METAR:KNRB 210852Z AUTO 31008KT 10SM CLR 04/M01 A3022 RMK AO2 SLP232 T00391006 51010 TSNO $

Related Locations
Nearby:
Farthest:USL: 11496 mi / 18501 km
Useless Loop, WA, AU

Find:

   beyond  
but within

Other Information
Maps:
NOTAMs:
Links:
Sources:

  
  • flag of United States
  • flag of Florida
  

Airport Diagram

Airport diagram for NRB

Airport diagram PDF from FAA

Sectional Chart

Flight Planning
at skyvector.com

Satellite Image

Google Maps Satellite view

 

Copyright © 2004-2019 Karl L. Swartz. All rights reserved.
The Great Circle Mapper name and logo are trademarks of the Great Circle Mapper.
All other trademarks mentioned herein belong to their respective owners.
Please see credits for attibutions and further copyright information.

  Follow gcmap on Facebook Follow gcmap on Twitter Follow gcmap on Google+ GCmap on LinkedIn

hCard Microformat

Geo Microformat